createdAt,value
2022-10-15T00:01:34.767Z,14.66
2022-10-15T00:06:29.977Z,14.68
2022-10-15T00:08:56.124Z,14.68
2022-10-15T00:11:22.262Z,14.70
2022-10-15T00:13:48.398Z,14.71
2022-10-15T00:16:14.522Z,14.73
2022-10-15T00:18:40.705Z,14.76
2022-10-15T00:21:06.838Z,14.76
2022-10-15T00:23:33.002Z,14.77
2022-10-15T00:25:59.133Z,14.77
2022-10-15T00:28:25.356Z,14.78
2022-10-15T00:30:51.545Z,14.82
2022-10-15T00:33:17.680Z,14.77
2022-10-15T00:35:43.805Z,14.87
2022-10-15T00:38:09.963Z,14.91
2022-10-15T00:40:36.095Z,14.92
2022-10-15T00:43:02.290Z,14.93
2022-10-15T00:45:28.449Z,15.01
2022-10-15T00:47:54.599Z,15.03
2022-10-15T00:50:20.709Z,15.03
2022-10-15T00:52:46.834Z,15.10
2022-10-15T00:55:12.979Z,15.12
2022-10-15T00:57:39.130Z,15.16
2022-10-15T01:00:05.265Z,15.14
2022-10-15T01:02:31.395Z,15.17
2022-10-15T01:04:57.537Z,15.24
2022-10-15T01:07:23.655Z,15.25
2022-10-15T01:09:49.823Z,15.31
2022-10-15T01:12:15.961Z,15.34
2022-10-15T01:14:42.078Z,15.34
2022-10-15T01:17:08.214Z,15.38
2022-10-15T01:19:34.337Z,15.44
2022-10-15T01:22:00.483Z,15.42
2022-10-15T01:24:26.588Z,15.47
2022-10-15T01:26:52.728Z,15.41
2022-10-15T01:29:19.650Z,15.39
2022-10-15T01:31:45.771Z,15.45
2022-10-15T01:34:12.773Z,15.45
2022-10-15T01:36:41.069Z,15.52
2022-10-15T01:39:07.171Z,15.57
2022-10-15T01:41:33.274Z,15.56
2022-10-15T01:43:59.702Z,15.57
2022-10-15T01:46:25.857Z,15.49
2022-10-15T01:48:51.976Z,15.54
2022-10-15T01:51:18.211Z,15.56
2022-10-15T01:53:44.323Z,15.56
2022-10-15T01:56:10.480Z,15.61
2022-10-15T01:58:36.596Z,15.58
2022-10-15T02:01:02.798Z,15.59
2022-10-15T02:03:29.005Z,15.57
2022-10-15T02:05:55.125Z,15.57
2022-10-15T02:08:21.274Z,15.60
2022-10-15T02:10:47.405Z,15.59
2022-10-15T02:13:13.553Z,15.70
2022-10-15T02:15:39.680Z,15.69
2022-10-15T02:18:05.794Z,15.66
2022-10-15T02:20:31.923Z,15.76
2022-10-15T02:22:58.052Z,15.74
2022-10-15T02:25:24.216Z,15.70
2022-10-15T02:27:50.376Z,15.78
2022-10-15T02:30:16.499Z,15.78
2022-10-15T02:32:42.647Z,15.81
2022-10-15T02:35:08.771Z,15.89
2022-10-15T02:37:34.878Z,15.79
2022-10-15T02:40:01.032Z,15.86
2022-10-15T02:42:27.205Z,15.79
2022-10-15T02:44:53.433Z,15.79
2022-10-15T02:47:19.628Z,15.74
2022-10-15T02:49:45.856Z,15.83
2022-10-15T02:52:11.999Z,15.78
2022-10-15T02:54:38.134Z,15.83
2022-10-15T02:57:04.277Z,15.78
2022-10-15T02:59:30.410Z,15.87
2022-10-15T03:01:56.556Z,15.91
2022-10-15T03:04:22.703Z,15.89
2022-10-15T03:06:48.804Z,15.91
2022-10-15T03:09:14.924Z,15.88
2022-10-15T03:11:41.070Z,15.99
2022-10-15T03:14:07.199Z,15.98
2022-10-15T03:16:33.317Z,15.90
2022-10-15T03:18:59.476Z,15.91
2022-10-15T03:21:25.599Z,15.90
2022-10-15T03:23:51.705Z,15.95
2022-10-15T03:26:17.846Z,15.92
2022-10-15T03:28:44.017Z,16.01
2022-10-15T03:31:10.192Z,15.98
2022-10-15T03:33:36.301Z,16.07
2022-10-15T03:36:02.463Z,16.01
2022-10-15T03:38:28.610Z,16.01
2022-10-15T03:40:54.705Z,16.00
2022-10-15T03:43:20.837Z,16.03
2022-10-15T03:45:46.974Z,16.01
2022-10-15T03:48:13.091Z,16.10
2022-10-15T03:50:39.289Z,16.01
2022-10-15T03:53:05.433Z,16.04
2022-10-15T03:55:31.563Z,16.06
2022-10-15T03:57:57.722Z,16.03
2022-10-15T04:00:23.840Z,16.00
2022-10-15T04:02:49.965Z,16.06
2022-10-15T04:05:16.096Z,16.04
2022-10-15T04:07:42.218Z,16.05
2022-10-15T04:10:08.377Z,16.07
2022-10-15T04:12:34.524Z,16.08
2022-10-15T04:15:00.676Z,16.04
2022-10-15T04:17:26.779Z,16.01
2022-10-15T04:19:52.897Z,16.12
2022-10-15T04:22:19.031Z,16.02
2022-10-15T04:24:45.163Z,16.07
2022-10-15T04:27:11.328Z,16.10
2022-10-15T04:29:37.584Z,16.14
2022-10-15T04:32:03.734Z,16.13
2022-10-15T04:34:29.847Z,16.13
2022-10-15T04:36:55.991Z,16.12
2022-10-15T04:39:22.124Z,16.14
2022-10-15T04:41:48.250Z,16.13
2022-10-15T04:44:14.428Z,16.19
2022-10-15T04:46:40.582Z,16.13
2022-10-15T04:49:06.699Z,16.10
2022-10-15T04:51:32.796Z,16.17
2022-10-15T04:53:58.944Z,16.16
2022-10-15T04:56:25.073Z,16.11
2022-10-15T04:58:51.201Z,16.19
2022-10-15T05:01:17.370Z,16.10
2022-10-15T05:03:45.142Z,16.16
2022-10-15T05:06:11.585Z,16.14
2022-10-15T05:08:37.724Z,16.19
2022-10-15T05:11:03.853Z,16.10
2022-10-15T05:13:29.993Z,16.13
2022-10-15T05:15:56.166Z,16.17
2022-10-15T05:18:22.301Z,16.11
2022-10-15T05:20:48.446Z,16.06
2022-10-15T05:23:14.606Z,16.06
2022-10-15T05:25:40.715Z,16.11
2022-10-15T05:28:06.866Z,16.15
2022-10-15T05:30:32.989Z,16.11
2022-10-15T05:32:59.134Z,16.06
2022-10-15T05:35:25.293Z,16.08
2022-10-15T05:37:51.453Z,16.14
2022-10-15T05:40:21.106Z,16.07
2022-10-15T05:42:48.241Z,16.08
2022-10-15T05:45:14.433Z,16.03
2022-10-15T05:47:40.553Z,16.06
2022-10-15T05:50:09.508Z,16.00
2022-10-15T05:52:37.870Z,16.01
2022-10-15T05:55:04.022Z,16.01
2022-10-15T05:57:30.173Z,16.00
2022-10-15T05:59:56.292Z,16.05
2022-10-15T06:02:22.931Z,15.98
2022-10-15T06:04:49.415Z,16.01
2022-10-15T06:07:15.552Z,16.00
2022-10-15T06:09:41.687Z,16.02
2022-10-15T06:12:07.843Z,16.06
2022-10-15T06:14:34.026Z,16.03
2022-10-15T06:17:00.146Z,16.05
2022-10-15T06:19:26.295Z,16.05
2022-10-15T06:21:52.475Z,16.03
2022-10-15T06:24:18.585Z,16.03
2022-10-15T06:26:44.749Z,16.03
2022-10-15T06:29:13.740Z,16.00
2022-10-15T06:31:39.892Z,16.02
2022-10-15T06:34:06.010Z,15.99
2022-10-15T06:36:32.141Z,16.00
2022-10-15T06:38:58.324Z,16.00
2022-10-15T06:41:24.543Z,16.02
2022-10-15T06:43:50.653Z,16.00
2022-10-15T06:46:16.784Z,15.97
2022-10-15T06:48:42.926Z,16.02
2022-10-15T06:51:09.056Z,16.01
2022-10-15T06:53:35.213Z,16.01
2022-10-15T06:56:01.363Z,16.12
2022-10-15T06:58:27.495Z,16.01
2022-10-15T07:00:53.643Z,16.02
2022-10-15T07:03:19.794Z,16.00
2022-10-15T07:05:45.937Z,15.99
2022-10-15T07:08:16.783Z,15.97
2022-10-15T07:10:45.355Z,15.97
2022-10-15T07:13:11.468Z,15.89
2022-10-15T07:15:37.598Z,15.91
2022-10-15T07:18:03.701Z,15.91
2022-10-15T07:20:29.846Z,15.91
2022-10-15T07:22:56.060Z,15.88
2022-10-15T07:25:22.207Z,15.75
2022-10-15T07:27:48.348Z,15.86
2022-10-15T07:30:14.495Z,15.84
2022-10-15T07:32:40.624Z,15.80
2022-10-15T07:35:09.488Z,15.80
2022-10-15T07:37:35.613Z,15.80
2022-10-15T07:40:01.750Z,15.83
2022-10-15T07:42:27.874Z,15.81
2022-10-15T07:44:53.992Z,15.82
2022-10-15T07:50:10.561Z,15.83
2022-10-15T07:52:36.855Z,15.84
2022-10-15T07:55:02.986Z,15.86
2022-10-15T07:57:32.257Z,15.93
2022-10-15T07:59:58.389Z,15.96
2022-10-15T08:02:24.804Z,15.98
2022-10-15T08:04:51.102Z,15.90
2022-10-15T08:07:17.206Z,15.99
2022-10-15T08:09:43.363Z,15.98
2022-10-15T08:12:09.531Z,15.97
2022-10-15T08:14:35.720Z,16.02
2022-10-15T08:17:01.851Z,16.05
2022-10-15T08:19:27.999Z,16.13
2022-10-15T08:35:41.115Z,16.12
2022-10-15T08:38:07.294Z,16.09
2022-10-15T08:40:33.441Z,16.10
2022-10-15T08:42:59.641Z,16.12
2022-10-15T08:45:28.988Z,16.19
2022-10-15T08:47:55.160Z,16.21
2022-10-15T08:50:21.438Z,16.22
2022-10-15T08:52:49.620Z,16.22
2022-10-15T08:55:15.782Z,16.16
2022-10-15T08:57:41.955Z,16.19
2022-10-15T09:00:08.206Z,16.21
2022-10-15T09:02:34.501Z,16.21
2022-10-15T09:05:00.783Z,16.20
2022-10-15T09:07:29.453Z,16.20
2022-10-15T09:09:55.677Z,16.24
2022-10-15T09:12:21.884Z,16.21
2022-10-15T09:14:48.083Z,16.21
2022-10-15T09:17:14.284Z,16.28
2022-10-15T09:19:40.412Z,16.26
2022-10-15T09:22:06.529Z,16.27
2022-10-15T09:24:32.687Z,16.27
2022-10-15T09:26:58.862Z,16.36
2022-10-15T09:29:25.072Z,16.42
2022-10-15T09:31:51.377Z,16.46
2022-10-15T09:34:19.284Z,16.49
2022-10-15T09:36:45.407Z,16.45
2022-10-15T09:39:11.578Z,16.43
2022-10-15T09:41:37.713Z,16.44
2022-10-15T09:44:05.791Z,16.42
2022-10-15T09:46:33.523Z,16.49
2022-10-15T09:48:59.663Z,16.49
2022-10-15T09:51:25.799Z,16.50
2022-10-15T09:53:51.953Z,16.53
2022-10-15T09:56:18.066Z,16.59
2022-10-15T09:58:44.223Z,16.63
2022-10-15T10:01:13.135Z,16.66
2022-10-15T10:03:39.254Z,16.65
2022-10-15T10:06:05.410Z,16.69
2022-10-15T10:08:31.529Z,16.78
2022-10-15T10:10:57.660Z,16.80
2022-10-15T10:13:23.793Z,16.82
2022-10-15T10:15:50.763Z,16.86
2022-10-15T10:18:18.074Z,16.97
2022-10-15T10:20:44.329Z,16.89
2022-10-15T10:23:10.480Z,16.97
2022-10-15T10:25:36.612Z,17.00
2022-10-15T10:28:02.771Z,17.01
2022-10-15T10:30:28.904Z,17.14
2022-10-15T10:32:55.029Z,17.14
2022-10-15T10:35:21.172Z,17.18
2022-10-15T10:37:47.313Z,17.32
2022-10-15T10:43:00.000Z,17.41
2022-10-15T10:51:11.140Z,17.73
2022-10-15T10:53:40.270Z,17.76
2022-10-15T10:56:06.438Z,17.81
2022-10-15T10:58:32.558Z,18.00
2022-10-15T11:00:58.719Z,17.99
2022-10-15T11:03:24.905Z,17.98
2022-10-15T11:05:51.025Z,17.92
2022-10-15T11:08:18.191Z,17.88
2022-10-15T11:10:44.306Z,17.93
2022-10-15T11:18:21.214Z,18.06
2022-10-15T11:23:37.727Z,18.22
2022-10-15T11:26:03.880Z,18.37
2022-10-15T11:28:30.071Z,18.40
2022-10-15T11:30:56.261Z,18.25
2022-10-15T11:33:22.409Z,18.28
2022-10-15T11:35:53.393Z,18.24
2022-10-15T11:38:20.268Z,18.26
2022-10-15T11:40:46.455Z,18.23
2022-10-15T11:43:12.608Z,18.22
2022-10-15T11:45:38.767Z,18.30
2022-10-15T11:48:04.923Z,18.14
2022-10-15T11:50:31.051Z,18.01
2022-10-15T11:52:57.212Z,17.90
2022-10-15T11:55:23.333Z,17.89
2022-10-15T11:57:49.499Z,17.77
2022-10-15T12:00:15.650Z,17.63
2022-10-15T12:02:41.801Z,17.54
2022-10-15T12:05:07.954Z,17.53
2022-10-15T12:07:34.102Z,17.47
2022-10-15T12:10:00.251Z,17.44
2022-10-15T12:12:26.670Z,17.44
2022-10-15T12:14:52.996Z,17.44
2022-10-15T12:17:19.156Z,17.44
2022-10-15T12:19:45.338Z,17.41
2022-10-15T12:22:11.451Z,17.45
2022-10-15T12:24:37.607Z,17.49
2022-10-15T12:27:03.720Z,17.47
2022-10-15T12:29:29.836Z,17.42
2022-10-15T12:31:55.971Z,17.32
2022-10-15T12:34:23.068Z,17.30
2022-10-15T12:36:49.221Z,17.38
2022-10-15T12:39:27.792Z,17.42
2022-10-15T12:42:01.472Z,17.43
2022-10-15T12:44:34.682Z,17.40
2022-10-15T12:47:00.829Z,17.44
2022-10-15T12:49:26.955Z,17.44
2022-10-15T12:52:05.172Z,17.42
2022-10-15T12:54:31.395Z,17.42
2022-10-15T12:56:57.509Z,17.40
2022-10-15T12:59:23.635Z,17.39
2022-10-15T13:01:49.762Z,17.38
2022-10-15T13:04:15.882Z,17.37
2022-10-15T13:06:42.137Z,17.35
2022-10-15T13:09:08.287Z,17.29
2022-10-15T13:11:34.472Z,17.20
2022-10-15T13:14:00.589Z,17.24
2022-10-15T13:16:26.710Z,17.12
2022-10-15T13:18:52.847Z,17.08
2022-10-15T13:21:18.982Z,17.05
2022-10-15T13:23:45.115Z,16.99
2022-10-15T13:26:11.288Z,16.98
2022-10-15T13:28:37.477Z,16.98
2022-10-15T13:31:03.611Z,16.97
2022-10-15T13:33:29.738Z,17.06
2022-10-15T13:35:55.853Z,17.03
2022-10-15T13:38:21.985Z,17.12
2022-10-15T13:40:48.111Z,17.11
2022-10-15T13:43:14.308Z,17.12
2022-10-15T13:45:40.433Z,17.05
2022-10-15T13:48:06.554Z,17.08
2022-10-15T13:50:32.689Z,17.15
2022-10-15T13:52:58.825Z,17.14
2022-10-15T13:55:24.968Z,17.16
2022-10-15T13:57:51.117Z,17.13
2022-10-15T14:00:17.268Z,17.10
2022-10-15T14:02:43.428Z,17.12
2022-10-15T14:05:15.545Z,17.10
2022-10-15T14:07:59.736Z,17.12
2022-10-15T14:24:36.259Z,17.13
2022-10-15T14:32:37.154Z,17.14
2022-10-15T14:35:06.077Z,17.12
2022-10-15T14:37:36.443Z,17.04
2022-10-15T14:40:06.194Z,16.99
2022-10-15T14:42:35.546Z,16.95
2022-10-15T14:45:01.931Z,16.90
2022-10-15T14:47:31.317Z,16.90
2022-10-15T14:52:47.752Z,16.87
2022-10-15T14:55:13.975Z,16.85
2022-10-15T15:06:06.214Z,16.94
2022-10-15T15:08:40.320Z,16.95
2022-10-15T15:19:35.284Z,16.75
2022-10-15T15:33:09.206Z,16.77
2022-10-15T15:58:09.216Z,16.52
2022-10-15T16:03:15.785Z,16.63
2022-10-15T16:05:41.987Z,16.60
2022-10-15T16:08:10.868Z,16.59
2022-10-15T16:16:15.537Z,16.57
2022-10-15T16:18:41.862Z,16.53
2022-10-15T16:21:08.003Z,16.57
2022-10-15T16:23:34.249Z,16.52
2022-10-15T16:26:00.396Z,16.53
2022-10-15T16:28:26.581Z,16.51
2022-10-15T16:30:52.717Z,16.53
2022-10-15T16:33:18.875Z,16.54
2022-10-15T16:35:44.995Z,16.55
2022-10-15T16:38:11.181Z,16.54
2022-10-15T16:40:37.315Z,16.54
2022-10-15T16:43:03.437Z,16.55
2022-10-15T16:45:29.564Z,16.55
2022-10-15T16:47:55.701Z,16.55
2022-10-15T16:50:21.879Z,16.55
2022-10-15T16:52:48.019Z,16.55
2022-10-15T16:55:14.159Z,16.51
2022-10-15T16:57:40.297Z,16.50
2022-10-15T17:00:06.437Z,16.48
2022-10-15T17:02:32.564Z,16.43
2022-10-15T17:04:58.756Z,16.38
2022-10-15T17:07:25.154Z,16.35
2022-10-15T17:09:51.439Z,16.33
2022-10-15T17:12:17.619Z,16.33
2022-10-15T17:14:43.759Z,16.31
2022-10-15T17:17:09.892Z,16.30
2022-10-15T17:19:36.022Z,16.32
2022-10-15T17:22:02.176Z,16.28
2022-10-15T17:24:28.302Z,16.30
2022-10-15T17:26:54.417Z,16.27
2022-10-15T17:29:20.952Z,16.30
2022-10-15T17:31:51.664Z,16.29
2022-10-15T17:34:17.784Z,16.28
2022-10-15T17:36:43.969Z,16.26
2022-10-15T17:39:10.584Z,16.31
2022-10-15T17:41:36.716Z,16.30
2022-10-15T17:44:02.870Z,16.30
2022-10-15T17:46:29.041Z,16.31
2022-10-15T17:48:55.173Z,16.28
2022-10-15T17:51:21.316Z,16.27
2022-10-15T17:53:47.487Z,16.27
2022-10-15T17:56:13.627Z,16.26
2022-10-15T17:58:39.768Z,16.27
2022-10-15T18:01:05.926Z,16.24
2022-10-15T18:03:32.097Z,16.27
2022-10-15T18:05:58.356Z,16.29
2022-10-15T18:08:24.551Z,16.30
2022-10-15T18:10:50.707Z,16.29
2022-10-15T18:13:17.070Z,16.28
2022-10-15T18:15:43.240Z,16.27
2022-10-15T18:18:09.405Z,16.27
2022-10-15T18:20:35.692Z,16.24
2022-10-15T18:23:01.846Z,16.24
2022-10-15T18:25:27.979Z,16.24
2022-10-15T18:27:54.281Z,16.27
2022-10-15T18:30:20.483Z,16.26
2022-10-15T18:32:46.610Z,16.26
2022-10-15T18:35:12.770Z,16.26
2022-10-15T18:37:38.892Z,16.27
2022-10-15T18:40:05.016Z,16.25
2022-10-15T18:42:31.173Z,16.26
2022-10-15T18:44:57.338Z,16.25
2022-10-15T18:47:23.611Z,16.27
2022-10-15T18:49:49.779Z,16.27
2022-10-15T18:52:22.031Z,16.31
2022-10-15T18:55:01.418Z,16.29
2022-10-15T18:57:27.562Z,16.31
2022-10-15T19:02:19.863Z,16.34
2022-10-15T19:04:46.082Z,16.33
2022-10-15T19:07:12.285Z,16.33
2022-10-15T19:09:38.469Z,16.37
2022-10-15T19:12:04.640Z,16.39
2022-10-15T19:14:31.125Z,16.42
2022-10-15T19:16:57.285Z,16.42
2022-10-15T19:19:23.416Z,16.39
2022-10-15T19:21:49.643Z,16.36
2022-10-15T19:24:15.815Z,16.37
2022-10-15T19:26:41.990Z,16.42
2022-10-15T19:29:08.420Z,16.41
2022-10-15T19:31:34.571Z,16.42
2022-10-15T19:34:00.733Z,16.40
2022-10-15T19:36:26.880Z,16.41
2022-10-15T19:38:53.062Z,16.41
2022-10-15T19:41:19.208Z,16.39
2022-10-15T19:43:45.382Z,16.42
2022-10-15T19:46:14.560Z,16.45
2022-10-15T19:48:40.835Z,16.40
2022-10-15T19:51:07.092Z,16.42
2022-10-15T19:53:33.480Z,16.38
2022-10-15T19:55:59.641Z,16.35
2022-10-15T19:58:25.779Z,16.30
2022-10-15T20:00:51.978Z,16.27
2022-10-15T20:03:18.142Z,16.27
2022-10-15T20:05:44.332Z,16.26
2022-10-15T20:08:10.511Z,16.24
2022-10-15T20:10:36.781Z,16.22
2022-10-15T20:13:02.948Z,16.21
2022-10-15T20:15:29.105Z,16.18
2022-10-15T20:17:55.288Z,16.19
2022-10-15T20:20:21.443Z,16.14
2022-10-15T20:22:47.577Z,16.12
2022-10-15T20:25:15.659Z,16.11
2022-10-15T20:27:41.845Z,16.11
2022-10-15T20:30:09.526Z,16.10
2022-10-15T20:32:35.913Z,16.06
2022-10-15T20:35:02.323Z,16.07
2022-10-15T20:37:28.507Z,16.06
2022-10-15T20:39:54.718Z,16.05
2022-10-15T20:42:20.974Z,16.05
2022-10-15T20:44:47.206Z,16.02
2022-10-15T20:47:13.371Z,16.03
2022-10-15T20:49:39.545Z,16.05
2022-10-15T20:52:05.688Z,16.05
2022-10-15T20:54:31.886Z,16.06
2022-10-15T20:56:58.058Z,16.04
2022-10-15T20:59:26.611Z,16.04
2022-10-15T21:01:55.680Z,16.03
2022-10-15T21:04:21.848Z,16.02
2022-10-15T21:06:48.052Z,16.02
2022-10-15T21:09:14.203Z,16.00
2022-10-15T21:11:40.480Z,15.98
2022-10-15T21:14:06.621Z,15.96
2022-10-15T21:19:03.805Z,15.92
2022-10-15T21:21:29.904Z,15.92
2022-10-15T21:23:56.051Z,15.91
2022-10-15T21:26:22.177Z,15.88
2022-10-15T21:28:48.336Z,15.85
2022-10-15T21:31:14.519Z,15.84
2022-10-15T21:33:40.750Z,15.82
2022-10-15T21:36:06.864Z,15.79
2022-10-15T21:38:32.973Z,15.78
2022-10-15T21:40:59.104Z,15.77
2022-10-15T21:43:25.331Z,15.76
2022-10-15T21:45:51.491Z,15.74
2022-10-15T21:48:17.670Z,15.71
2022-10-15T21:50:43.838Z,15.70
2022-10-15T21:53:09.996Z,15.75
2022-10-15T21:55:36.129Z,15.74
2022-10-15T21:58:02.261Z,15.76
2022-10-15T22:00:28.433Z,15.75
2022-10-15T22:02:54.562Z,15.78
2022-10-15T22:05:20.717Z,15.77
2022-10-15T22:07:46.864Z,15.79
2022-10-15T22:10:12.983Z,15.79
2022-10-15T22:12:39.138Z,15.78
2022-10-15T22:15:05.380Z,15.79
2022-10-15T22:17:31.533Z,15.82
2022-10-15T22:19:57.795Z,15.81
2022-10-15T22:22:24.241Z,15.82
2022-10-15T22:24:50.533Z,15.84
2022-10-15T22:27:16.706Z,15.84
2022-10-15T22:29:42.887Z,15.85
2022-10-15T22:32:09.062Z,15.85
2022-10-15T22:34:35.213Z,15.88
2022-10-15T22:37:01.324Z,15.88
2022-10-15T22:39:27.457Z,15.90
2022-10-15T22:41:53.577Z,15.90
2022-10-15T22:44:19.701Z,15.90
2022-10-15T22:46:45.869Z,15.89
2022-10-15T22:49:11.983Z,15.89
2022-10-15T22:51:38.131Z,15.93
2022-10-15T22:54:04.259Z,15.92
2022-10-15T22:56:30.379Z,15.92
2022-10-15T22:58:56.739Z,15.91
2022-10-15T23:01:22.952Z,15.91
2022-10-15T23:03:49.112Z,15.91
2022-10-15T23:06:15.239Z,15.90
2022-10-15T23:08:41.423Z,15.91
2022-10-15T23:11:09.368Z,15.91
2022-10-15T23:13:36.036Z,15.90
2022-10-15T23:16:02.366Z,15.91
2022-10-15T23:18:28.494Z,15.91
2022-10-15T23:20:54.646Z,15.92
2022-10-15T23:23:20.774Z,15.92
2022-10-15T23:25:46.921Z,15.92
2022-10-15T23:28:13.067Z,15.92
2022-10-15T23:30:39.227Z,15.91
2022-10-15T23:33:05.366Z,15.88
2022-10-15T23:35:31.570Z,15.86
2022-10-15T23:37:57.729Z,15.83
2022-10-15T23:40:23.854Z,15.84
2022-10-15T23:42:49.989Z,15.81
2022-10-15T23:45:16.123Z,15.80
2022-10-15T23:47:42.253Z,15.82
2022-10-15T23:50:08.411Z,15.82
2022-10-15T23:52:34.565Z,15.83
2022-10-15T23:55:00.726Z,15.84
2022-10-15T23:57:27.166Z,15.85
2022-10-15T23:59:53.620Z,15.86
